createdAt,value
2017-09-05T00:00:27.093Z,93.60
2017-09-05T00:03:00.644Z,93.90
2017-09-05T00:05:34.223Z,94.10
2017-09-05T00:08:08.440Z,94.20
2017-09-05T00:13:41.192Z,93.30
2017-09-05T00:16:20.535Z,94.10
2017-09-05T00:18:54.112Z,94.50
2017-09-05T00:21:27.722Z,94.40
2017-09-05T00:24:01.425Z,94.00
2017-09-05T00:26:35.039Z,93.60
2017-09-05T00:29:08.571Z,94.30
2017-09-05T00:31:42.282Z,93.50
2017-09-05T00:34:15.858Z,93.90
2017-09-05T00:36:49.377Z,93.20
2017-09-05T00:39:22.980Z,93.80
2017-09-05T00:41:56.585Z,94.30
2017-09-05T00:44:30.154Z,94.30
2017-09-05T00:47:03.867Z,94.60
2017-09-05T00:49:37.444Z,94.60
2017-09-05T00:52:10.955Z,94.70
2017-09-05T00:54:44.482Z,94.40
2017-09-05T00:57:18.056Z,94.00
2017-09-05T00:59:51.664Z,94.40
2017-09-05T01:02:25.281Z,94.60
2017-09-05T01:04:58.868Z,94.40
2017-09-05T01:07:32.472Z,94.20
2017-09-05T01:10:05.980Z,94.50
2017-09-05T01:12:39.572Z,94.00
2017-09-05T01:15:13.066Z,94.00
2017-09-05T01:17:46.613Z,94.20
2017-09-05T01:20:20.261Z,94.00
2017-09-05T01:22:53.827Z,94.50
2017-09-05T01:25:27.353Z,94.40
2017-09-05T01:28:00.957Z,94.10
2017-09-05T01:30:34.468Z,93.70
2017-09-05T01:33:08.039Z,94.00
2017-09-05T01:35:41.577Z,94.40
2017-09-05T01:38:15.184Z,94.60
2017-09-05T01:40:48.740Z,94.80
2017-09-05T01:43:22.288Z,94.60
2017-09-05T01:45:55.878Z,94.70
2017-09-05T01:48:29.415Z,94.40
2017-09-05T01:51:02.933Z,94.70
2017-09-05T01:53:36.475Z,94.60
2017-09-05T01:56:10.073Z,94.60
2017-09-05T01:58:43.651Z,94.20
2017-09-05T02:01:17.184Z,94.30
2017-09-05T02:03:50.773Z,94.50
2017-09-05T02:06:24.307Z,94.30
2017-09-05T02:08:57.865Z,94.10
2017-09-05T02:11:31.416Z,94.30
2017-09-05T02:14:05.269Z,94.40
2017-09-05T02:16:39.052Z,94.20
2017-09-05T02:19:12.598Z,94.30
2017-09-05T02:21:46.156Z,94.00
2017-09-05T02:24:19.909Z,94.00
2017-09-05T02:26:53.457Z,94.20
2017-09-05T02:29:27.022Z,94.60
2017-09-05T02:32:00.655Z,95.00
2017-09-05T02:34:34.154Z,95.00
2017-09-05T02:37:07.660Z,94.90
2017-09-05T02:39:41.184Z,94.80
2017-09-05T02:42:14.781Z,94.60
2017-09-05T02:44:48.285Z,94.80
2017-09-05T02:47:21.821Z,94.80
2017-09-05T02:49:55.403Z,92.50
2017-09-05T02:52:29.039Z,93.20
2017-09-05T02:55:02.606Z,94.50
2017-09-05T02:57:36.257Z,95.00
2017-09-05T03:00:09.834Z,95.20
2017-09-05T03:02:43.360Z,94.90
2017-09-05T03:05:16.913Z,92.20
2017-09-05T03:07:50.456Z,93.80
2017-09-05T03:10:24.581Z,95.20
2017-09-05T03:12:58.095Z,95.50
2017-09-05T03:15:31.655Z,95.10
2017-09-05T03:18:05.260Z,95.40
2017-09-05T03:20:38.867Z,95.50
2017-09-05T03:23:12.610Z,95.30
2017-09-05T03:25:46.223Z,95.10
2017-09-05T03:28:19.974Z,95.10
2017-09-05T03:30:53.496Z,95.60
2017-09-05T03:33:27.168Z,95.30
2017-09-05T03:36:00.765Z,95.20
2017-09-05T03:38:34.492Z,95.10
2017-09-05T03:41:08.064Z,95.20
2017-09-05T03:43:41.663Z,94.80
2017-09-05T03:46:15.245Z,95.50
2017-09-05T03:48:48.806Z,95.30
2017-09-05T03:51:23.153Z,94.90
2017-09-05T03:53:56.712Z,94.40
2017-09-05T03:56:30.265Z,95.00
2017-09-05T03:59:03.806Z,95.10
2017-09-05T04:01:37.394Z,94.90
2017-09-05T04:04:10.991Z,95.00
2017-09-05T04:06:44.567Z,95.30
2017-09-05T04:09:18.176Z,95.30
2017-09-05T04:11:51.724Z,95.60
2017-09-05T04:14:25.287Z,95.50
2017-09-05T04:16:58.873Z,95.40
2017-09-05T04:19:32.390Z,95.60
2017-09-05T04:22:05.989Z,95.30
2017-09-05T04:24:39.520Z,95.60
2017-09-05T04:27:13.081Z,95.60
2017-09-05T04:29:46.653Z,95.60
2017-09-05T04:32:20.227Z,95.10
2017-09-05T04:34:53.765Z,94.80
2017-09-05T04:37:27.399Z,94.50
2017-09-05T04:40:01.112Z,94.90
2017-09-05T04:42:34.734Z,94.70
2017-09-05T04:45:08.387Z,94.70
2017-09-05T04:47:41.973Z,94.40
2017-09-05T04:50:15.596Z,93.60
2017-09-05T04:52:49.195Z,94.50
2017-09-05T04:55:22.734Z,94.70
2017-09-05T04:57:56.300Z,94.50
2017-09-05T05:00:29.988Z,94.30
2017-09-05T05:03:03.541Z,94.20
2017-09-05T05:05:37.908Z,94.00
2017-09-05T05:08:11.549Z,94.00
2017-09-05T05:10:45.103Z,92.90
2017-09-05T05:13:18.708Z,94.10
2017-09-05T05:15:52.203Z,94.40
2017-09-05T05:18:25.809Z,94.40
2017-09-05T05:20:59.528Z,93.80
2017-09-05T05:23:33.092Z,93.60
2017-09-05T05:26:06.696Z,94.10
2017-09-05T05:28:40.303Z,94.50
2017-09-05T05:31:13.817Z,93.20
2017-09-05T05:33:47.411Z,93.50
2017-09-05T05:36:20.979Z,93.30
2017-09-05T05:38:54.602Z,93.00
2017-09-05T05:41:28.227Z,92.40
2017-09-05T05:44:01.714Z,93.30
2017-09-05T05:46:35.285Z,93.00
2017-09-05T05:49:08.834Z,93.00
2017-09-05T05:51:42.416Z,93.30
2017-09-05T05:54:16.004Z,93.40
2017-09-05T05:56:49.495Z,93.30
2017-09-05T05:59:23.092Z,92.70
2017-09-05T06:01:56.694Z,93.10
2017-09-05T06:04:30.315Z,93.50
2017-09-05T06:07:04.833Z,93.80
2017-09-05T06:09:38.619Z,93.80
2017-09-05T06:12:12.190Z,93.10
2017-09-05T06:14:45.788Z,93.50
2017-09-05T06:17:19.420Z,94.00
2017-09-05T06:19:53.021Z,94.30
2017-09-05T06:22:26.544Z,94.60
2017-09-05T06:25:00.083Z,95.00
2017-09-05T06:27:33.666Z,94.90
2017-09-05T06:30:07.249Z,95.30
2017-09-05T06:32:40.806Z,95.20
2017-09-05T06:35:14.312Z,95.50
2017-09-05T06:37:47.929Z,95.70
2017-09-05T06:40:21.541Z,95.80
2017-09-05T06:42:55.110Z,96.10
2017-09-05T06:45:28.752Z,95.70
2017-09-05T06:48:02.493Z,95.70
2017-09-05T06:50:36.128Z,96.20
2017-09-05T06:53:09.720Z,96.20
2017-09-05T06:55:43.292Z,96.30
2017-09-05T06:58:16.869Z,96.80
2017-09-05T07:00:50.538Z,96.80
2017-09-05T07:03:24.116Z,96.80
2017-09-05T07:05:58.469Z,97.10
2017-09-05T07:08:32.093Z,97.00
2017-09-05T07:11:05.663Z,95.70
2017-09-05T07:13:39.223Z,95.20
2017-09-05T07:16:12.784Z,96.40
2017-09-05T07:18:46.335Z,96.80
2017-09-05T07:21:19.893Z,97.30
2017-09-05T07:23:53.419Z,97.30
2017-09-05T07:26:27.015Z,97.90
2017-09-05T07:29:00.650Z,97.60
2017-09-05T07:31:34.158Z,98.20
2017-09-05T07:34:07.712Z,98.10
2017-09-05T07:36:41.336Z,97.50
2017-09-05T07:39:14.939Z,98.10
2017-09-05T07:41:48.482Z,98.30
2017-09-05T07:44:22.030Z,98.40
2017-09-05T07:46:55.628Z,98.50
2017-09-05T07:49:29.160Z,99.10
2017-09-05T07:52:02.846Z,98.50
2017-09-05T07:54:36.435Z,99.10
2017-09-05T07:57:09.997Z,99.60
2017-09-05T07:59:43.527Z,99.30
2017-09-05T08:02:17.375Z,98.80
2017-09-05T08:04:50.927Z,99.50
2017-09-05T08:07:24.449Z,99.50
2017-09-05T08:09:58.019Z,98.90
2017-09-05T08:12:31.582Z,99.30
2017-09-05T08:15:05.133Z,99.20
2017-09-05T08:17:38.673Z,99.60
2017-09-05T08:20:12.223Z,99.70
2017-09-05T08:22:45.736Z,99.90
2017-09-05T08:25:19.338Z,99.90
2017-09-05T08:27:52.931Z,98.70
2017-09-05T08:30:26.435Z,99.50
2017-09-05T08:33:00.052Z,99.20
2017-09-05T08:35:33.573Z,98.20
2017-09-05T08:38:07.137Z,99.00
2017-09-05T08:40:40.739Z,98.40
2017-09-05T08:43:14.316Z,97.60
2017-09-05T08:45:47.817Z,98.40
2017-09-05T08:48:21.357Z,97.10
2017-09-05T08:50:54.955Z,98.10
2017-09-05T08:53:28.572Z,97.50
2017-09-05T08:56:02.091Z,98.10
2017-09-05T08:58:35.650Z,97.50
2017-09-05T09:01:09.218Z,97.20
2017-09-05T09:03:42.829Z,97.20
2017-09-05T09:06:16.392Z,97.40
2017-09-05T09:08:50.039Z,97.10
2017-09-05T09:11:23.590Z,95.80
2017-09-05T09:13:57.230Z,95.00
2017-09-05T09:16:30.767Z,95.80
2017-09-05T09:19:04.321Z,96.30
2017-09-05T09:21:37.865Z,95.00
2017-09-05T09:24:11.438Z,94.30
2017-09-05T09:26:44.980Z,94.20
2017-09-05T09:29:18.483Z,94.90
2017-09-05T09:31:51.960Z,94.40
2017-09-05T09:34:25.613Z,92.70
2017-09-05T09:36:59.129Z,94.30
2017-09-05T09:39:32.745Z,93.70
2017-09-05T09:42:06.293Z,92.80
2017-09-05T09:44:39.817Z,92.10
2017-09-05T09:47:13.353Z,92.30
2017-09-05T09:49:46.898Z,92.10
2017-09-05T09:52:20.518Z,92.00
2017-09-05T09:54:54.095Z,92.60
2017-09-05T09:57:28.427Z,92.10
2017-09-05T10:00:02.971Z,91.40
2017-09-05T10:02:36.693Z,91.40
2017-09-05T10:05:10.268Z,92.20
2017-09-05T10:07:43.862Z,91.70
2017-09-05T10:10:17.493Z,89.70
2017-09-05T10:12:50.976Z,90.70
2017-09-05T10:15:24.495Z,90.80
2017-09-05T10:17:58.021Z,90.40
2017-09-05T10:20:31.624Z,91.00
2017-09-05T10:23:05.162Z,90.80
2017-09-05T10:25:38.734Z,90.60
2017-09-05T10:28:12.362Z,90.50
2017-09-05T10:30:45.984Z,90.80
2017-09-05T10:33:19.505Z,89.00
2017-09-05T10:35:53.078Z,90.00
2017-09-05T10:38:26.631Z,90.20
2017-09-05T10:41:00.275Z,90.30
2017-09-05T10:43:33.848Z,88.50
2017-09-05T10:46:07.467Z,89.00
2017-09-05T10:48:41.050Z,89.10
2017-09-05T10:51:14.681Z,89.70
2017-09-05T10:53:48.240Z,90.50
2017-09-05T10:56:21.910Z,88.80
2017-09-05T10:58:55.553Z,87.10
2017-09-05T11:01:29.085Z,87.40
2017-09-05T11:04:02.664Z,88.40
2017-09-05T11:06:36.373Z,86.20
2017-09-05T11:09:09.936Z,85.40
2017-09-05T11:11:43.532Z,85.00
2017-09-05T11:14:17.078Z,86.40
2017-09-05T11:16:50.658Z,86.10
2017-09-05T11:19:24.260Z,86.80
2017-09-05T11:21:57.895Z,87.00
2017-09-05T11:24:31.442Z,86.90
2017-09-05T11:27:04.964Z,87.60
2017-09-05T11:29:38.524Z,84.80
2017-09-05T11:32:12.120Z,84.70
2017-09-05T11:34:45.859Z,83.60
2017-09-05T11:37:19.411Z,84.70
2017-09-05T11:39:52.936Z,85.50
2017-09-05T11:42:26.561Z,84.30
2017-09-05T11:45:00.156Z,83.30
2017-09-05T11:47:33.759Z,83.80
2017-09-05T11:50:07.315Z,86.60
2017-09-05T11:52:40.960Z,89.30
2017-09-05T11:55:14.543Z,88.20
2017-09-05T11:57:48.058Z,88.40
2017-09-05T12:00:21.629Z,87.50
2017-09-05T12:02:55.270Z,88.50
2017-09-05T12:05:28.845Z,87.50
2017-09-05T12:08:02.383Z,87.00
2017-09-05T12:10:35.971Z,86.90
2017-09-05T12:13:09.569Z,81.30
2017-09-05T12:15:43.148Z,81.40
2017-09-05T12:18:16.700Z,78.90
2017-09-05T12:20:50.228Z,79.20
2017-09-05T12:23:23.803Z,79.90
2017-09-05T12:25:57.554Z,76.60
2017-09-05T12:28:31.176Z,74.70
2017-09-05T12:31:04.761Z,75.20
2017-09-05T12:33:38.394Z,77.00
2017-09-05T12:36:11.936Z,75.60
2017-09-05T12:38:45.559Z,74.50
2017-09-05T12:41:19.044Z,72.50
2017-09-05T12:43:52.643Z,72.10
2017-09-05T12:46:26.239Z,72.50
2017-09-05T12:48:59.865Z,71.60
2017-09-05T12:51:33.422Z,69.60
2017-09-05T12:54:07.072Z,72.70
2017-09-05T12:56:40.669Z,70.80
2017-09-05T12:59:14.264Z,71.80
2017-09-05T13:01:47.762Z,71.70
2017-09-05T13:04:21.339Z,70.20
2017-09-05T13:06:54.962Z,72.30
2017-09-05T13:09:28.554Z,70.80
2017-09-05T13:12:02.116Z,72.20
2017-09-05T13:14:35.693Z,74.20
2017-09-05T13:17:09.245Z,70.50
2017-09-05T13:19:42.818Z,72.90
2017-09-05T13:22:16.611Z,74.80
2017-09-05T13:24:50.229Z,75.40
2017-09-05T13:27:23.873Z,76.10
2017-09-05T13:29:57.515Z,77.80
2017-09-05T13:32:31.017Z,74.60
2017-09-05T13:35:04.685Z,72.40
2017-09-05T13:37:38.207Z,73.80
2017-09-05T13:40:11.777Z,73.90
2017-09-05T13:42:45.307Z,70.20
2017-09-05T13:45:18.964Z,74.20
2017-09-05T13:47:52.508Z,74.30
2017-09-05T13:50:26.060Z,74.40
2017-09-05T13:52:59.645Z,75.80
2017-09-05T13:55:33.475Z,72.10
2017-09-05T13:58:07.060Z,74.20
2017-09-05T14:00:40.598Z,75.20
2017-09-05T14:03:14.136Z,74.40
2017-09-05T14:05:47.767Z,75.90
2017-09-05T14:08:21.278Z,72.60
2017-09-05T14:10:54.816Z,73.80
2017-09-05T14:13:28.335Z,75.40
2017-09-05T14:16:02.402Z,74.90
2017-09-05T14:18:35.915Z,77.00
2017-09-05T14:21:09.518Z,78.10
2017-09-05T14:23:43.155Z,76.60
2017-09-05T14:26:16.764Z,76.90
2017-09-05T14:28:50.261Z,77.50
2017-09-05T14:31:23.882Z,76.30
2017-09-05T14:33:57.453Z,77.10
2017-09-05T14:36:30.961Z,76.20
2017-09-05T14:39:04.593Z,75.40
2017-09-05T14:41:38.174Z,74.80
2017-09-05T14:44:11.740Z,74.00
2017-09-05T14:46:45.312Z,75.50
2017-09-05T14:49:18.804Z,75.80
2017-09-05T14:51:52.344Z,73.80
2017-09-05T14:54:25.867Z,77.10
2017-09-05T14:56:59.426Z,71.40
2017-09-05T14:59:32.936Z,73.50
2017-09-05T15:02:06.502Z,71.00
2017-09-05T15:04:40.035Z,75.00
2017-09-05T15:07:13.675Z,74.00
2017-09-05T15:09:47.247Z,73.40
2017-09-05T15:12:20.789Z,76.30
2017-09-05T15:14:54.377Z,73.20
2017-09-05T15:17:27.926Z,74.30
2017-09-05T15:20:02.461Z,76.50
2017-09-05T15:22:36.099Z,75.60
2017-09-05T15:25:09.656Z,74.20
2017-09-05T15:27:43.337Z,74.60
2017-09-05T15:30:16.901Z,74.90
2017-09-05T15:32:50.426Z,75.30
2017-09-05T15:35:23.970Z,74.20
2017-09-05T15:37:57.548Z,76.60
2017-09-05T15:40:31.135Z,74.50
2017-09-05T15:43:04.840Z,71.60
2017-09-05T15:45:38.373Z,72.60
2017-09-05T15:48:11.924Z,73.30
2017-09-05T15:50:45.456Z,73.10
2017-09-05T15:53:18.995Z,72.90
2017-09-05T15:55:52.576Z,73.20
2017-09-05T15:58:26.177Z,73.90
2017-09-05T16:00:59.728Z,74.20
2017-09-05T16:03:33.264Z,74.90
2017-09-05T16:06:06.863Z,75.10
2017-09-05T16:08:40.406Z,73.60
2017-09-05T16:11:13.936Z,74.70
2017-09-05T16:13:47.656Z,76.10
2017-09-05T16:16:21.302Z,76.00
2017-09-05T16:18:54.892Z,76.10
2017-09-05T16:21:28.483Z,74.90
2017-09-05T16:24:02.107Z,75.10
2017-09-05T16:26:35.649Z,76.20
2017-09-05T16:29:09.316Z,76.70
2017-09-05T16:31:42.966Z,75.90
2017-09-05T16:34:16.635Z,74.30
2017-09-05T16:36:50.479Z,75.10
2017-09-05T16:39:24.046Z,75.80
2017-09-05T16:41:57.740Z,77.10
2017-09-05T16:44:31.382Z,78.70
2017-09-05T16:47:04.976Z,77.10
2017-09-05T16:49:38.630Z,79.30
2017-09-05T16:52:12.210Z,82.70
2017-09-05T16:54:45.893Z,86.00
2017-09-05T16:57:19.621Z,86.70
2017-09-05T16:59:53.313Z,84.60
2017-09-05T17:02:27.211Z,87.80
2017-09-05T17:05:00.835Z,88.70
2017-09-05T17:07:34.437Z,89.50
2017-09-05T17:10:08.031Z,90.80
2017-09-05T17:12:41.749Z,90.30
2017-09-05T17:15:15.513Z,90.70
2017-09-05T17:17:49.335Z,91.80
2017-09-05T17:20:23.072Z,91.50
2017-09-05T17:22:56.994Z,92.40
2017-09-05T17:25:30.824Z,92.60
2017-09-05T17:28:04.745Z,92.80
2017-09-05T17:30:38.550Z,93.20
2017-09-05T17:33:12.257Z,93.40
2017-09-05T17:35:46.004Z,94.30
2017-09-05T17:38:19.826Z,94.60
2017-09-05T17:40:54.264Z,94.10
2017-09-05T17:43:28.131Z,94.00
2017-09-05T17:46:01.873Z,94.80
2017-09-05T17:48:35.457Z,94.40
2017-09-05T17:51:09.191Z,95.00
2017-09-05T17:53:43.059Z,94.90
2017-09-05T17:56:16.775Z,95.30
2017-09-05T17:58:50.742Z,95.30
2017-09-05T18:01:24.514Z,95.20
2017-09-05T18:03:58.406Z,94.80
2017-09-05T18:06:32.122Z,95.20
2017-09-05T18:09:05.967Z,94.80
2017-09-05T18:11:39.665Z,94.80
2017-09-05T18:14:13.417Z,94.90
2017-09-05T18:16:46.948Z,95.10
2017-09-05T18:19:20.536Z,95.10
2017-09-05T18:21:54.312Z,95.10
2017-09-05T18:24:28.081Z,95.70
2017-09-05T18:27:01.979Z,96.10
2017-09-05T18:29:35.888Z,96.00
2017-09-05T18:32:09.699Z,96.20
2017-09-05T18:34:43.608Z,95.90
2017-09-05T18:37:17.516Z,95.40
2017-09-05T18:39:51.127Z,95.70
2017-09-05T18:42:24.771Z,95.90
2017-09-05T18:44:58.747Z,95.40
2017-09-05T18:47:32.346Z,95.60
2017-09-05T18:50:06.333Z,95.60
2017-09-05T18:52:40.186Z,95.60
2017-09-05T18:55:13.862Z,96.00
2017-09-05T18:57:47.672Z,96.00
2017-09-05T19:00:21.391Z,96.50
2017-09-05T19:02:55.165Z,96.50
2017-09-05T19:05:29.036Z,96.20
2017-09-05T19:08:02.891Z,96.10
2017-09-05T19:10:36.766Z,96.10
2017-09-05T19:13:10.600Z,96.10
2017-09-05T19:15:44.341Z,96.20
2017-09-05T19:18:18.050Z,96.30
2017-09-05T19:20:51.859Z,96.30
2017-09-05T19:23:25.649Z,96.20
2017-09-05T19:25:59.209Z,96.20
2017-09-05T19:28:32.966Z,96.60
2017-09-05T19:31:06.635Z,96.20
2017-09-05T19:33:40.354Z,96.30
2017-09-05T19:36:14.838Z,96.90
2017-09-05T19:38:48.494Z,96.60
2017-09-05T19:41:22.057Z,96.80
2017-09-05T19:43:55.823Z,96.90
2017-09-05T19:46:29.634Z,96.60
2017-09-05T19:49:03.476Z,96.40
2017-09-05T19:51:37.313Z,96.40
2017-09-05T19:54:11.282Z,96.60
2017-09-05T19:56:44.916Z,97.10
2017-09-05T19:59:18.863Z,96.80
2017-09-05T20:01:52.522Z,96.60
2017-09-05T20:04:26.201Z,96.70
2017-09-05T20:06:59.931Z,97.00
2017-09-05T20:09:33.632Z,97.10
2017-09-05T20:12:07.369Z,96.70
2017-09-05T20:14:40.976Z,97.30
2017-09-05T20:17:14.746Z,97.20
2017-09-05T20:19:48.372Z,97.20
2017-09-05T20:22:22.387Z,97.00
2017-09-05T20:24:56.194Z,97.30
2017-09-05T20:27:30.005Z,96.80
2017-09-05T20:30:03.620Z,97.10
2017-09-05T20:32:37.409Z,97.20
2017-09-05T20:35:11.122Z,97.30
2017-09-05T20:37:44.822Z,97.10
2017-09-05T20:40:18.436Z,97.10
2017-09-05T20:42:52.136Z,97.10
2017-09-05T20:45:25.845Z,97.10
2017-09-05T20:47:59.694Z,97.20
2017-09-05T20:50:33.559Z,97.80
2017-09-05T20:53:07.406Z,97.90
2017-09-05T20:55:41.048Z,97.80
2017-09-05T20:58:15.581Z,97.90
2017-09-05T21:00:50.089Z,98.00
2017-09-05T21:03:23.843Z,97.90
2017-09-05T21:05:57.628Z,98.30
2017-09-05T21:08:31.393Z,97.30
2017-09-05T21:11:04.940Z,97.30
2017-09-05T21:13:38.614Z,97.20
2017-09-05T21:16:12.355Z,97.60
2017-09-05T21:18:46.108Z,97.90
2017-09-05T21:21:19.865Z,97.90
2017-09-05T21:23:53.614Z,98.00
2017-09-05T21:26:27.207Z,97.60
2017-09-05T21:29:00.895Z,97.90
2017-09-05T21:31:34.625Z,97.80
2017-09-05T21:34:08.267Z,97.70
2017-09-05T21:36:42.080Z,97.20
2017-09-05T21:39:15.836Z,97.10
2017-09-05T21:41:49.445Z,97.50
2017-09-05T21:44:23.046Z,97.40
2017-09-05T21:46:56.592Z,97.70
2017-09-05T21:49:30.192Z,97.20
2017-09-05T21:52:03.792Z,97.40
2017-09-05T21:54:37.368Z,97.10
2017-09-05T21:57:11.142Z,97.20
2017-09-05T21:59:44.853Z,96.60
2017-09-05T22:02:18.418Z,94.90
2017-09-05T22:04:51.943Z,95.70
2017-09-05T22:07:25.617Z,92.50
2017-09-05T22:09:59.207Z,92.80
2017-09-05T22:12:32.804Z,94.70
2017-09-05T22:18:04.953Z,97.10
2017-09-05T22:20:44.388Z,98.10
2017-09-05T22:23:22.875Z,97.30
2017-09-05T22:26:02.225Z,97.40
2017-09-05T22:28:41.629Z,97.60
2017-09-05T22:31:15.394Z,98.00
2017-09-05T22:33:49.004Z,97.70
2017-09-05T22:36:22.785Z,97.70
2017-09-05T22:38:56.496Z,97.00
2017-09-05T22:41:30.145Z,96.90
2017-09-05T22:44:03.868Z,97.70
2017-09-05T22:46:37.421Z,97.90
2017-09-05T22:49:10.934Z,96.90
2017-09-05T22:51:44.525Z,97.60
2017-09-05T22:54:18.118Z,97.80
2017-09-05T22:56:51.744Z,98.40
2017-09-05T22:59:25.328Z,98.50
2017-09-05T23:01:58.904Z,98.70
2017-09-05T23:04:32.431Z,98.70
2017-09-05T23:07:06.019Z,98.70
2017-09-05T23:09:39.565Z,98.80
2017-09-05T23:12:13.114Z,98.30
2017-09-05T23:14:46.627Z,98.30
2017-09-05T23:17:20.312Z,98.30
2017-09-05T23:19:53.863Z,98.50
2017-09-05T23:22:27.330Z,97.80
2017-09-05T23:25:00.916Z,98.10
2017-09-05T23:27:35.226Z,98.10
2017-09-05T23:30:08.914Z,98.10
2017-09-05T23:32:42.571Z,97.70
2017-09-05T23:35:16.128Z,97.00
2017-09-05T23:37:49.677Z,97.30
2017-09-05T23:40:23.238Z,97.80
2017-09-05T23:42:56.748Z,98.10
2017-09-05T23:45:30.344Z,98.20
2017-09-05T23:48:03.899Z,98.30
2017-09-05T23:50:37.481Z,98.30
2017-09-05T23:53:11.123Z,98.20
2017-09-05T23:55:44.651Z,98.20
2017-09-05T23:58:18.148Z,98.20
